Time;durP1;ratioP1;P1;durP2;ratioP2;P2;SDS_P1;SDS_P2;PMS_P1;PMS_P2;Temp;Humidity;BMP_temperature;BMP_pressure;BME280_temperature;BME280_humidity;BME280_pressure;Samples;Min_cycle;Max_cycle;Signal;HPM_P1;HPM_P2
2021/05/25 00:00:34;;;;;;;0.67;0.50;;;;;;;6.75;66.01;95416.22;5050029;28;20202;-75
2021/05/25 00:03:01;;;;;;;1.63;0.53;;;;;;;6.61;66.51;95402.81;5051257;28;20206;-75
2021/05/25 00:05:30;;;;;;;1.13;0.60;;;;;;;6.67;66.64;95405.72;5049997;28;20269;-76
2021/05/25 00:07:55;;;;;;;2.00;0.60;;;;;;;6.62;66.30;95399.28;5048924;28;20189;-75
2021/05/25 00:10:28;;;;;;;1.80;0.70;;;;;;;6.72;65.03;95400.19;5032979;28;20756;-76
2021/05/25 00:12:54;;;;;;;1.80;0.80;;;;;;;6.61;66.25;95398.47;5049816;28;20669;-75
2021/05/25 00:15:23;;;;;;;0.83;0.37;;;;;;;6.62;65.88;95400.13;5048587;28;20224;-75
2021/05/25 00:17:50;;;;;;;1.20;0.60;;;;;;;6.56;65.39;95395.47;5049898;28;20269;-75
2021/05/25 00:20:16;;;;;;;3.40;0.50;;;;;;;6.51;65.47;95401.00;5049690;28;20166;-75
2021/05/25 00:22:42;;;;;;;2.13;0.50;;;;;;;6.49;65.69;95396.94;5049821;28;20267;-74
2021/05/25 00:25:09;;;;;;;2.00;0.50;;;;;;;6.45;66.01;95393.78;5048679;28;20659;-76
2021/05/25 00:27:34;;;;;;;1.83;0.60;;;;;;;6.40;65.96;95397.69;5051003;28;20608;-75
2021/05/25 00:30:00;;;;;;;3.30;0.80;;;;;;;6.47;66.01;95398.81;5032997;28;20242;-76
2021/05/25 00:32:25;;;;;;;2.80;0.80;;;;;;;6.45;65.46;95396.38;5049393;28;20574;-76
2021/05/25 00:34:51;;;;;;;2.27;0.70;;;;;;;6.40;65.66;95393.34;5049740;28;20185;-75
2021/05/25 00:37:16;;;;;;;1.93;0.80;;;;;;;6.42;66.09;95394.03;5048783;28;20528;-76
2021/05/25 00:39:41;;;;;;;3.97;1.13;;;;;;;6.33;66.12;95402.50;5049697;28;20204;-76
2021/05/25 00:42:07;;;;;;;2.57;0.63;;;;;;;6.34;65.97;95405.91;5049325;28;20287;-76
2021/05/25 00:44:32;;;;;;;3.27;0.80;;;;;;;6.46;65.16;95404.94;5049655;28;20513;-76
2021/05/25 00:46:57;;;;;;;1.30;0.60;;;;;;;6.41;64.95;95392.38;5048611;28;20185;-76
2021/05/25 00:49:23;;;;;;;2.53;0.63;;;;;;;6.43;64.75;95389.69;5032511;28;20641;-75
2021/05/25 00:51:48;;;;;;;3.43;0.70;;;;;;;6.37;65.40;95388.44;5032570;28;20691;-75
2021/05/25 00:54:13;;;;;;;1.27;0.60;;;;;;;6.36;65.43;95391.13;5049378;28;20335;-75
2021/05/25 00:56:39;;;;;;;1.20;1.07;;;;;;;6.37;65.17;95390.22;5049380;28;20201;-75
2021/05/25 00:59:04;;;;;;;4.33;0.87;;;;;;;6.38;65.38;95392.66;5053038;28;20537;-75
2021/05/25 01:01:30;;;;;;;3.90;0.87;;;;;;;6.41;64.61;95397.56;5054362;28;20536;-76
2021/05/25 01:03:56;;;;;;;1.40;0.60;;;;;;;6.50;64.46;95394.22;5052952;28;20598;-75
2021/05/25 01:06:21;;;;;;;3.03;1.20;;;;;;;6.52;64.20;95388.91;5053254;28;20180;-75
2021/05/25 01:08:47;;;;;;;4.07;0.90;;;;;;;6.56;64.04;95394.66;5052041;28;20206;-75
2021/05/25 01:11:14;;;;;;;1.83;0.83;;;;;;;6.62;64.04;95391.56;5052694;28;20205;-75
2021/05/25 01:13:48;;;;;;;1.63;0.67;;;;;;;6.51;63.96;95387.28;5052772;28;20201;-75
2021/05/25 01:16:15;;;;;;;2.93;0.80;;;;;;;6.51;64.40;95382.13;5053061;28;20178;-76
2021/05/25 01:18:40;;;;;;;1.40;0.60;;;;;;;6.49;63.82;95379.69;5050845;28;20204;-75
2021/05/25 01:21:08;;;;;;;2.57;0.80;;;;;;;6.47;64.16;95380.75;5052476;28;20658;-75
2021/05/25 01:23:35;;;;;;;3.33;0.80;;;;;;;6.48;63.72;95388.38;5052793;28;20201;-75
2021/05/25 01:26:00;;;;;;;3.23;0.90;;;;;;;6.46;63.53;95377.38;5036085;28;20645;-75
2021/05/25 01:28:26;;;;;;;3.13;0.93;;;;;;;6.42;64.00;95378.53;5034587;28;20272;-75
2021/05/25 01:30:52;;;;;;;1.67;0.70;;;;;;;6.42;63.82;95388.88;5035622;28;20256;-76
2021/05/25 01:33:18;;;;;;;6.30;0.90;;;;;;;6.38;64.11;95384.91;5052523;28;20229;-75
2021/05/25 01:35:44;;;;;;;2.40;0.90;;;;;;;6.46;64.06;95400.59;5052608;28;20630;-75
2021/05/25 01:38:11;;;;;;;3.43;0.93;;;;;;;6.49;63.79;95392.59;5052541;28;20188;-75
2021/05/25 01:40:37;;;;;;;2.43;0.70;;;;;;;6.46;64.04;95395.44;5051016;28;20186;-75
2021/05/25 01:43:03;;;;;;;3.13;0.93;;;;;;;6.50;64.83;95407.13;5035335;28;20206;-75
2021/05/25 01:45:30;;;;;;;3.57;0.90;;;;;;;6.63;64.43;95416.44;5053662;28;20178;-75
2021/05/25 01:47:57;;;;;;;1.60;0.60;;;;;;;6.64;64.37;95415.50;5053534;28;20181;-75
2021/05/25 01:50:25;;;;;;;2.50;0.60;;;;;;;6.59;64.42;95397.78;5050944;28;20560;-75
2021/05/25 01:52:51;;;;;;;2.40;1.07;;;;;;;6.48;65.11;95406.44;5052037;28;20306;-75
2021/05/25 01:55:42;;;;;;;1.83;0.43;;;;;;;6.40;65.37;95403.66;5053411;28;20697;-75
2021/05/25 01:58:10;;;;;;;1.90;0.60;;;;;;;6.36;65.38;95420.34;5052575;28;20186;-74
2021/05/25 02:00:36;;;;;;;2.80;0.93;;;;;;;6.38;65.57;95417.63;5034054;28;20198;-75
2021/05/25 02:03:03;;;;;;;2.37;0.80;;;;;;;6.34;66.10;95411.06;5085400;28;20197;-74
2021/05/25 02:05:28;;;;;;;3.03;0.70;;;;;;;6.37;65.75;95414.22;5052024;28;20520;-76
2021/05/25 02:07:54;;;;;;;1.67;0.60;;;;;;;6.33;66.17;95420.56;5051562;28;20181;-76
2021/05/25 02:10:24;;;;;;;2.80;0.80;;;;;;;6.19;65.82;95421.69;5051262;28;20666;-75
2021/05/25 02:12:49;;;;;;;2.73;0.77;;;;;;;6.29;65.65;95428.69;5050803;28;20324;-75
2021/05/25 02:15:16;;;;;;;1.43;0.60;;;;;;;6.17;66.72;95439.03;5052720;28;20178;-76
2021/05/25 02:17:41;;;;;;;1.13;0.60;;;;;;;6.13;67.39;95429.09;5051770;28;20675;-76
2021/05/25 02:20:08;;;;;;;2.30;0.50;;;;;;;6.09;67.39;95423.34;5052853;28;20174;-76
2021/05/25 02:22:33;;;;;;;1.80;0.53;;;;;;;6.05;68.55;95428.91;5050263;28;20206;-76
2021/05/25 02:24:58;;;;;;;2.27;0.70;;;;;;;6.02;68.26;95419.66;5050800;28;20192;-74
2021/05/25 02:27:23;;;;;;;1.27;0.40;;;;;;;5.97;68.86;95419.19;5052825;28;20588;-74
2021/05/25 02:29:49;;;;;;;0.93;0.50;;;;;;;5.86;69.64;95416.63;5051556;28;20206;-74
2021/05/25 02:32:14;;;;;;;1.03;0.50;;;;;;;5.76;69.02;95413.97;5050152;28;20243;-74
2021/05/25 02:34:39;;;;;;;0.77;0.40;;;;;;;5.68;69.23;95417.16;5033578;28;20213;-76
2021/05/25 02:37:05;;;;;;;3.63;0.73;;;;;;;5.61;70.56;95433.19;5049726;28;20646;-76
2021/05/25 02:39:30;;;;;;;2.77;0.80;;;;;;;5.63;69.97;95421.00;5051253;28;20196;-76
2021/05/25 02:41:55;;;;;;;3.70;0.80;;;;;;;5.66;69.99;95413.06;5052234;28;20212;-76
2021/05/25 02:44:20;;;;;;;2.60;0.77;;;;;;;5.61;69.75;95410.00;5050445;28;20213;-76
2021/05/25 02:46:46;;;;;;;3.03;0.73;;;;;;;5.63;69.92;95419.25;5051295;28;20674;-76
2021/05/25 02:49:11;;;;;;;1.47;0.60;;;;;;;5.59;69.97;95419.63;5051058;28;20207;-76
2021/05/25 02:51:36;;;;;;;2.73;0.63;;;;;;;5.66;69.88;95425.94;5050786;28;20198;-76
2021/05/25 02:54:02;;;;;;;2.17;0.70;;;;;;;5.61;69.64;95413.41;5050179;28;20213;-76
2021/05/25 02:56:27;;;;;;;2.60;0.73;;;;;;;5.46;69.90;95424.91;5052286;28;20180;-76
2021/05/25 02:58:54;;;;;;;3.13;0.53;;;;;;;5.47;70.25;95433.44;5052196;28;20585;-76
2021/05/25 03:01:19;;;;;;;1.87;0.70;;;;;;;5.46;70.12;95424.09;5050749;28;20184;-76
2021/05/25 03:03:45;;;;;;;1.43;0.60;;;;;;;5.52;69.89;95421.03;5034211;28;20580;-76
2021/05/25 03:06:10;;;;;;;2.60;0.73;;;;;;;5.40;69.94;95431.38;5048627;28;20197;-76
2021/05/25 03:08:35;;;;;;;2.20;0.80;;;;;;;5.46;69.51;95424.09;5051909;28;20681;-76
2021/05/25 03:11:00;;;;;;;1.50;0.63;;;;;;;5.40;69.86;95420.25;5051832;28;20265;-76
2021/05/25 03:13:26;;;;;;;1.87;0.70;;;;;;;5.34;70.34;95421.53;5050765;28;20232;-76
2021/05/25 03:15:51;;;;;;;3.73;0.73;;;;;;;5.35;69.84;95414.63;5049330;28;20197;-76
2021/05/25 03:18:17;;;;;;;2.83;0.80;;;;;;;5.36;69.89;95421.41;5051737;28;20197;-76
2021/05/25 03:20:45;;;;;;;1.13;0.83;;;;;;;5.31;70.04;95421.78;5051602;28;20166;-76
2021/05/25 03:23:11;;;;;;;2.07;0.90;;;;;;;5.39;69.12;95426.34;5034087;28;20244;-76
2021/05/25 03:25:36;;;;;;;4.30;0.90;;;;;;;5.40;69.27;95425.41;5049520;28;20232;-76
2021/05/25 03:28:02;;;;;;;3.87;0.80;;;;;;;5.45;69.05;95437.91;5050134;28;20186;-76
2021/05/25 03:30:28;;;;;;;2.37;0.70;;;;;;;5.47;69.33;95436.84;5050060;28;20229;-76
2021/05/25 03:32:54;;;;;;;2.63;0.70;;;;;;;5.49;68.77;95447.03;5050359;28;20205;-76
2021/05/25 03:35:24;;;;;;;3.73;0.77;;;;;;;5.55;68.88;95444.78;5051622;28;20193;-76
2021/05/25 03:37:49;;;;;;;0.90;0.47;;;;;;;5.62;68.91;95456.25;5049369;28;20189;-76
2021/05/25 03:40:15;;;;;;;3.67;0.80;;;;;;;5.61;68.61;95438.34;5051380;28;20184;-76
2021/05/25 03:42:49;;;;;;;1.57;0.90;;;;;;;5.71;68.97;95443.59;5050068;28;20604;-76
2021/05/25 03:45:15;;;;;;;7.17;1.20;;;;;;;5.73;68.51;95442.53;5033527;28;20193;-76
2021/05/25 03:47:41;;;;;;;3.43;1.00;;;;;;;5.66;68.47;95454.28;5049054;28;20271;-75
2021/05/25 03:50:08;;;;;;;4.13;0.73;;;;;;;5.70;68.15;95453.09;5051246;28;20241;-76
2021/05/25 03:52:35;;;;;;;1.67;0.60;;;;;;;5.66;68.86;95456.88;5033292;28;20579;-75
2021/05/25 03:55:02;;;;;;;1.10;0.70;;;;;;;5.68;68.46;95455.78;5033404;28;20181;-76
2021/05/25 03:59:53;;;;;;;1.57;0.53;;;;;;;6.79;65.36;95470.97;5050235;28;20181;-75
2021/05/25 04:02:19;;;;;;;0.80;0.60;;;;;;;7.76;61.77;95461.09;5049719;28;20649;-75
2021/05/25 04:04:44;;;;;;;2.30;0.60;;;;;;;7.44;61.72;95482.75;5050160;28;20260;-75
2021/05/25 04:07:09;;;;;;;2.20;0.50;;;;;;;7.17;63.37;95482.50;5033555;28;20264;-76
2021/05/25 04:09:35;;;;;;;0.87;0.77;;;;;;;6.98;63.33;95478.03;5049335;28;20205;-75
2021/05/25 04:12:00;;;;;;;2.33;0.50;;;;;;;6.81;64.80;95485.41;5050898;28;20239;-75
2021/05/25 04:14:25;;;;;;;1.97;0.53;;;;;;;6.69;64.71;95485.59;5050896;28;20232;-74
2021/05/25 04:16:51;;;;;;;2.60;0.93;;;;;;;6.49;65.54;95488.03;5051393;28;20177;-76
2021/05/25 04:19:16;;;;;;;1.23;0.70;;;;;;;6.41;65.67;95489.59;5049025;28;20201;-76
2021/05/25 04:21:41;;;;;;;1.43;0.60;;;;;;;6.37;65.76;95486.44;5050819;28;20185;-76
2021/05/25 04:24:07;;;;;;;1.37;0.60;;;;;;;6.46;65.85;95490.06;5050930;28;20783;-76
2021/05/25 04:26:33;;;;;;;3.07;0.70;;;;;;;6.34;65.58;95491.03;5033297;28;20189;-76
2021/05/25 04:28:58;;;;;;;1.07;0.70;;;;;;;6.43;65.61;95493.69;5050992;28;20208;-75
2021/05/25 04:31:24;;;;;;;0.40;0.40;;;;;;;6.47;65.28;95497.66;5048945;28;20783;-76
2021/05/25 04:33:49;;;;;;;1.77;0.50;;;;;;;6.56;65.02;95498.69;5054955;28;20236;-76
2021/05/25 04:36:17;;;;;;;2.00;0.60;;;;;;;6.79;64.38;95478.72;5037149;28;20220;-75
2021/05/25 04:38:42;;;;;;;2.60;0.70;;;;;;;6.79;64.00;95482.13;5053538;28;20193;-75
2021/05/25 04:41:08;;;;;;;0.90;0.60;;;;;;;6.60;63.97;95499.25;5043312;28;20604;-76
2021/05/25 04:43:33;;;;;;;1.97;0.53;;;;;;;6.33;64.30;95487.63;5053368;28;20190;-75
2021/05/25 04:45:58;;;;;;;1.43;0.60;;;;;;;6.36;65.11;95486.56;5052801;28;20568;-75
2021/05/25 04:48:23;;;;;;;1.50;0.70;;;;;;;6.33;65.17;95497.94;5054552;28;20182;-76
2021/05/25 04:50:49;;;;;;;1.13;0.63;;;;;;;6.38;64.43;95500.16;5053059;28;20247;-76
2021/05/25 04:53:14;;;;;;;1.40;0.60;;;;;;;6.47;64.28;95484.75;5052146;28;20297;-76
2021/05/25 04:55:40;;;;;;;2.33;0.60;;;;;;;6.50;63.67;95489.66;5053681;28;20872;-76
2021/05/25 04:58:05;;;;;;;0.57;0.43;;;;;;;6.59;63.49;95500.19;5053447;28;20180;-76
2021/05/25 05:00:31;;;;;;;0.97;0.60;;;;;;;9.17;56.64;95494.22;5052649;28;20185;-76
2021/05/25 05:02:56;;;;;;;1.63;0.67;;;;;;;10.98;49.42;95498.69;5052307;28;20684;-76
2021/05/25 05:05:23;;;;;;;2.10;0.60;;;;;;;9.64;51.49;95512.38;5053046;28;20582;-75
2021/05/25 05:07:49;;;;;;;2.23;0.40;;;;;;;10.04;50.42;95500.84;5036484;28;20231;-76
2021/05/25 05:10:15;;;;;;;1.37;0.40;;;;;;;10.78;48.53;95524.00;5052911;28;20213;-75
2021/05/25 05:12:41;;;;;;;1.17;0.50;;;;;;;12.08;45.49;95514.41;5050613;28;20224;-74
2021/05/25 05:15:08;;;;;;;1.93;0.60;;;;;;;11.54;46.06;95526.00;5052794;28;20202;-74
2021/05/25 05:17:33;;;;;;;2.30;0.60;;;;;;;11.48;46.64;95516.22;5052948;28;20178;-72
2021/05/25 05:19:58;;;;;;;0.60;0.40;;;;;;;11.40;46.90;95524.00;5036309;28;20875;-75
2021/05/25 05:22:24;;;;;;;3.07;0.77;;;;;;;12.32;44.17;95518.06;5052396;28;20210;-72
2021/05/25 05:24:50;;;;;;;0.67;0.50;;;;;;;13.82;41.77;95535.03;5051722;28;20269;-73
2021/05/25 05:27:16;;;;;;;3.03;0.40;;;;;;;13.77;40.01;95532.09;5052469;28;20260;-72
2021/05/25 05:29:41;;;;;;;0.73;0.50;;;;;;;14.51;39.14;95531.84;5053916;28;20206;-75
2021/05/25 05:32:07;;;;;;;3.57;0.50;;;;;;;16.02;36.14;95530.09;5052241;28;20182;-73
2021/05/25 05:34:32;;;;;;;1.20;0.53;;;;;;;16.11;34.62;95547.34;5051435;28;20204;-74
2021/05/25 05:36:58;;;;;;;1.00;0.52;;;;;;;13.72;38.53;95542.25;5052436;28;20680;-74
2021/05/25 05:39:23;;;;;;;1.10;0.50;;;;;;;14.73;36.85;95544.91;5035535;28;20178;-74
2021/05/25 05:41:49;;;;;;;0.63;0.50;;;;;;;15.59;35.91;95538.50;5052238;28;20189;-75
2021/05/25 05:44:14;;;;;;;2.35;0.60;;;;;;;16.33;35.07;95541.16;5034234;28;20201;-74
2021/05/25 05:46:40;;;;;;;3.97;0.50;;;;;;;16.09;35.24;95538.84;5033668;28;20549;-74
2021/05/25 05:49:05;;;;;;;2.28;0.63;;;;;;;15.25;36.15;95535.56;5053169;28;20202;-74
2021/05/25 05:51:31;;;;;;;1.23;0.40;;;;;;;13.27;39.25;95548.84;5051895;28;20243;-73
2021/05/25 05:53:57;;;;;;;1.60;0.40;;;;;;;13.51;40.14;95562.81;5052025;28;20193;-74
2021/05/25 05:56:22;;;;;;;0.97;0.40;;;;;;;12.70;41.79;95542.72;5050098;28;20650;-73
2021/05/25 05:58:48;;;;;;;1.37;0.57;;;;;;;11.90;43.35;95557.94;5052029;28;20188;-75
2021/05/25 06:01:13;;;;;;;1.30;0.43;;;;;;;13.71;39.55;95555.47;5053296;28;20180;-74
2021/05/25 06:03:39;;;;;;;1.33;0.67;;;;;;;13.33;39.77;95553.38;5052069;28;20193;-74
2021/05/25 06:06:06;;;;;;;0.87;0.53;;;;;;;13.81;38.31;95553.47;5050978;28;20189;-75
2021/05/25 06:08:31;;;;;;;2.03;0.50;;;;;;;13.96;38.05;95557.03;5035084;28;20250;-75
2021/05/25 06:10:57;;;;;;;3.27;0.97;;;;;;;15.61;35.53;95551.44;5052912;28;20188;-74
2021/05/25 06:13:25;;;;;;;0.87;0.50;;;;;;;16.27;33.72;95559.44;5051779;28;20271;-76
2021/05/25 06:15:54;;;;;;;1.60;0.40;;;;;;;13.47;38.14;95580.59;5049826;28;20243;-75
2021/05/25 06:18:19;;;;;;;2.07;0.70;;;;;;;15.51;34.83;95570.00;5085183;28;20782;-75
2021/05/25 06:20:45;;;;;;;2.00;0.50;;;;;;;15.55;35.42;95560.81;5034922;28;20202;-75
2021/05/25 06:23:10;;;;;;;1.27;0.40;;;;;;;16.29;33.38;95571.34;5034990;28;20908;-75
2021/05/25 06:25:35;;;;;;;3.30;0.57;;;;;;;15.32;34.76;95570.50;5052964;28;20551;-75
2021/05/25 06:28:01;;;;;;;0.63;0.43;;;;;;;12.42;39.89;95576.03;5051795;28;20193;-74
2021/05/25 06:30:28;;;;;;;1.50;0.80;;;;;;;12.15;42.82;95561.47;5051247;28;20303;-75
2021/05/25 06:32:54;;;;;;;1.80;0.63;;;;;;;14.21;38.37;95557.72;5051420;28;20748;-75
2021/05/25 06:35:19;;;;;;;1.13;0.47;;;;;;;12.64;40.41;95569.44;5051593;28;20182;-75
2021/05/25 06:37:44;;;;;;;1.53;0.53;;;;;;;12.98;40.95;95571.91;5049643;28;20197;-74
2021/05/25 06:40:11;;;;;;;0.90;0.40;;;;;;;13.34;40.51;95582.91;5050932;28;20174;-74
2021/05/25 06:42:36;;;;;;;1.13;0.50;;;;;;;13.20;40.75;95584.34;5050996;28;20202;-75
2021/05/25 06:45:03;;;;;;;0.60;0.37;;;;;;;11.93;43.22;95590.63;5052542;28;20703;-77
2021/05/25 06:47:28;;;;;;;1.33;0.43;;;;;;;11.12;44.69;95583.88;5049687;28;20181;-74
2021/05/25 06:49:54;;;;;;;0.60;0.40;;;;;;;11.92;42.69;95602.81;5051606;28;20288;-74
2021/05/25 06:52:19;;;;;;;1.07;0.40;;;;;;;12.42;42.34;95584.66;5050551;28;20263;-74
2021/05/25 06:54:45;;;;;;;3.60;0.53;;;;;;;12.14;43.81;95599.69;5050805;28;20672;-75
2021/05/25 06:57:11;;;;;;;1.07;0.40;;;;;;;12.61;41.93;95578.38;5051090;28;20182;-75
2021/05/25 06:59:37;;;;;;;1.53;0.40;;;;;;;11.21;44.81;95588.16;5050049;28;20182;-73
2021/05/25 07:02:03;;;;;;;2.40;0.63;;;;;;;10.67;46.22;95591.75;5050636;28;20653;-75
2021/05/25 07:04:28;;;;;;;2.10;0.70;;;;;;;10.82;46.91;95579.06;5050926;28;20186;-72
2021/05/25 07:06:53;;;;;;;2.00;0.57;;;;;;;10.52;49.08;95588.03;5052005;28;20178;-75
2021/05/25 07:09:19;;;;;;;1.03;0.40;;;;;;;11.46;48.13;95607.38;5050006;28;20206;-75
2021/05/25 07:11:44;;;;;;;0.87;0.40;;;;;;;11.41;48.96;95590.63;5051597;28;20182;-74
2021/05/25 07:14:09;;;;;;;2.57;0.70;;;;;;;11.42;46.86;95595.66;5050768;28;20201;-75
2021/05/25 07:16:36;;;;;;;1.33;0.50;;;;;;;10.35;48.41;95589.63;5050580;28;20178;-74
2021/05/25 07:19:02;;;;;;;2.33;0.73;;;;;;;10.76;48.29;95598.66;5050875;28;20236;-74
2021/05/25 07:21:27;;;;;;;2.13;0.53;;;;;;;10.28;48.03;95604.13;5049027;28;20228;-74
2021/05/25 07:23:52;;;;;;;1.37;0.50;;;;;;;10.38;49.11;95605.72;5051836;28;20596;-74
2021/05/25 07:26:18;;;;;;;0.53;0.30;;;;;;;10.42;48.80;95601.03;5051592;28;20178;-75
2021/05/25 07:28:43;;;;;;;1.53;0.37;;;;;;;10.66;49.27;95610.88;5033858;28;20236;-74
2021/05/25 07:31:09;;;;;;;1.67;0.60;;;;;;;9.96;50.33;95627.84;5045981;28;20435;-75
2021/05/25 07:33:35;;;;;;;1.13;0.40;;;;;;;10.28;50.49;95624.91;5034968;28;20210;-75
2021/05/25 07:36:00;;;;;;;2.10;0.60;;;;;;;10.44;50.54;95620.72;5043318;28;20182;-75
2021/05/25 07:38:26;;;;;;;2.23;0.53;;;;;;;10.30;51.12;95620.38;5040942;28;20194;-75
2021/05/25 07:40:51;;;;;;;0.73;0.53;;;;;;;10.81;50.05;95619.00;5020155;28;20174;-74
2021/05/25 07:43:17;;;;;;;1.70;0.43;;;;;;;11.95;46.57;95625.94;5046632;28;20232;-75
2021/05/25 07:45:44;;;;;;;2.70;0.60;;;;;;;11.51;47.30;95625.97;5043841;28;20182;-74
2021/05/25 07:48:10;;;;;;;1.30;0.60;;;;;;;10.97;48.30;95617.38;5042367;28;20183;-74
2021/05/25 07:50:35;;;;;;;0.90;0.50;;;;;;;11.46;47.71;95624.75;5033258;28;20214;-75
2021/05/25 07:53:00;;;;;;;1.27;0.50;;;;;;;10.93;49.55;95610.84;5047777;28;20232;-74
2021/05/25 07:55:28;;;;;;;2.77;0.60;;;;;;;11.35;47.93;95625.81;5049085;28;20197;-74
2021/05/25 07:57:54;;;;;;;1.53;0.60;;;;;;;11.25;48.93;95640.69;5047892;28;20275;-74
2021/05/25 08:00:21;;;;;;;2.20;0.60;;;;;;;11.29;49.23;95634.22;5048133;28;20260;-73
2021/05/25 08:02:46;;;;;;;1.23;0.50;;;;;;;11.37;48.79;95641.28;5044586;28;20214;-73
2021/05/25 08:05:13;;;;;;;2.20;1.13;;;;;;;11.24;47.91;95644.25;5046257;28;20178;-74
2021/05/25 08:07:39;;;;;;;2.57;0.50;;;;;;;10.90;49.07;95644.09;5047468;28;20204;-74
2021/05/25 08:10:06;;;;;;;1.37;0.50;;;;;;;11.08;49.83;95637.13;5030892;28;20228;-73
2021/05/25 08:12:32;;;;;;;2.10;0.50;;;;;;;11.28;48.51;95638.59;5054638;28;20197;-76
2021/05/25 08:14:59;;;;;;;1.20;0.60;;;;;;;10.98;48.84;95646.78;5029702;28;20648;-76
2021/05/25 08:19:54;;;;;;;3.37;0.67;;;;;;;11.21;50.20;95660.13;5037061;28;20642;-75
2021/05/25 08:22:19;;;;;;;1.43;0.50;;;;;;;10.72;50.78;95654.47;5016338;28;20284;-74
2021/05/25 08:24:45;;;;;;;1.57;0.60;;;;;;;9.65;53.29;95672.97;5046694;28;20736;-74
2021/05/25 08:27:10;;;;;;;1.13;0.60;;;;;;;9.59;53.10;95665.75;5033915;28;20201;-73
2021/05/25 08:29:35;;;;;;;1.63;0.53;;;;;;;9.62;53.40;95695.75;5041294;28;20206;-74
2021/05/25 08:32:01;;;;;;;3.60;0.80;;;;;;;9.56;52.92;95681.59;5032606;28;20191;-73
2021/05/25 08:34:26;;;;;;;1.17;0.60;;;;;;;9.31;53.73;95692.50;5046213;28;20189;-73
2021/05/25 08:36:52;;;;;;;3.03;0.63;;;;;;;9.66;54.15;95697.13;5042430;28;20666;-74
2021/05/25 08:39:17;;;;;;;2.60;0.80;;;;;;;10.01;53.23;95691.34;5040964;28;20174;-75
2021/05/25 08:41:43;;;;;;;2.87;0.60;;;;;;;9.82;53.89;95696.56;5042651;28;20185;-74
2021/05/25 08:44:08;;;;;;;4.40;0.60;;;;;;;10.14;53.27;95699.63;5041000;28;20210;-73
2021/05/25 08:46:34;;;;;;;4.43;0.90;;;;;;;10.23;53.00;95713.56;5023584;28;20224;-73
2021/05/25 08:49:01;;;;;;;1.03;0.53;;;;;;;9.78;54.54;95734.09;5032128;28;20555;-74
2021/05/25 08:51:26;;;;;;;2.93;0.80;;;;;;;9.67;53.90;95714.31;5045567;28;20267;-73
2021/05/25 08:53:51;;;;;;;2.03;0.63;;;;;;;10.07;53.79;95721.06;5045661;28;20673;-74
2021/05/25 08:56:17;;;;;;;4.43;0.93;;;;;;;9.96;53.66;95708.28;5049358;28;20182;-73
2021/05/25 08:58:42;;;;;;;2.80;0.83;;;;;;;9.86;54.05;95729.03;5039813;28;20213;-73
2021/05/25 09:01:08;;;;;;;2.27;0.80;;;;;;;9.76;53.68;95729.06;5037534;28;20186;-73
2021/05/25 09:03:33;;;;;;;2.47;0.53;;;;;;;9.73;53.53;95718.16;5019925;28;20960;-73
2021/05/25 09:06:09;;;;;;;1.87;0.60;;;;;;;9.76;54.30;95741.22;5040179;28;20195;-73
2021/05/25 09:08:35;;;;;;;7.70;0.67;;;;;;;9.01;55.13;95737.47;5024312;28;20280;-73
2021/05/25 09:11:08;;;;;;;2.17;0.87;;;;;;;9.49;55.64;95734.94;5042055;28;20673;-73
2021/05/25 09:13:34;;;;;;;4.33;0.80;;;;;;;9.65;54.85;95731.81;5032357;28;20207;-74
2021/05/25 09:16:02;;;;;;;2.00;0.70;;;;;;;10.24;54.38;95730.75;5044157;28;20281;-72
2021/05/25 09:18:29;;;;;;;2.50;1.07;;;;;;;10.23;52.79;95742.09;5044653;28;20182;-72
2021/05/25 09:20:59;;;;;;;2.63;0.77;;;;;;;9.79;53.67;95749.53;5050842;28;20546;-75
2021/05/25 09:23:38;;;;;;;1.67;0.60;;;;;;;9.71;53.07;95757.16;5068197;28;20288;-74
2021/05/25 09:26:12;;;;;;;3.17;0.73;;;;;;;9.49;53.16;95741.91;5050788;28;20197;-73
2021/05/25 09:29:02;;;;;;;2.97;0.93;;;;;;;9.35;54.07;95750.88;5051739;28;20614;-73
2021/05/25 09:31:38;;;;;;;2.97;0.97;;;;;;;10.11;52.08;95757.00;5050726;28;20221;-74
2021/05/25 09:34:04;;;;;;;4.13;0.97;;;;;;;10.11;51.79;95745.81;5030465;28;20225;-73
2021/05/25 09:36:30;;;;;;;3.30;0.80;;;;;;;9.55;52.80;95746.53;5039336;28;20288;-72
2021/05/25 09:39:04;;;;;;;3.40;0.90;;;;;;;9.75;52.42;95779.28;5050246;28;20190;-74
2021/05/25 09:42:05;;;;;;;2.80;0.80;;;;;;;9.70;52.24;95772.88;5050352;28;20201;-73
2021/05/25 09:44:30;;;;;;;3.27;0.60;;;;;;;9.38;52.69;95762.78;5077139;28;20217;-75
2021/05/25 09:47:01;;;;;;;3.23;0.97;;;;;;;9.59;52.60;95771.22;5042348;28;20214;-75
2021/05/25 09:49:27;;;;;;;1.63;0.63;;;;;;;9.97;52.24;95761.78;5079954;28;20208;-75
2021/05/25 09:52:06;;;;;;;2.97;0.87;;;;;;;9.84;52.00;95768.09;5047322;28;20735;-74
2021/05/25 09:54:32;;;;;;;2.60;0.60;;;;;;;9.82;51.46;95762.22;5066779;28;20191;-74
2021/05/25 09:56:59;;;;;;;3.80;1.10;;;;;;;10.08;51.12;95764.25;5027818;28;20178;-74
2021/05/25 09:59:28;;;;;;;4.03;1.40;;;;;;;10.20;51.49;95778.69;5031282;28;20264;-73
2021/05/25 10:01:53;;;;;;;3.03;0.87;;;;;;;10.21;51.77;95790.72;5046004;28;20184;-73
2021/05/25 10:04:19;;;;;;;3.00;0.70;;;;;;;10.25;52.13;95792.13;5043724;28;20389;-73
2021/05/25 10:06:47;;;;;;;1.13;0.50;;;;;;;10.09;52.39;95803.03;5038116;28;20194;-78
2021/05/25 10:09:13;;;;;;;3.57;0.93;;;;;;;9.77;53.87;95797.31;5043788;28;20205;-73
2021/05/25 10:11:42;;;;;;;1.13;0.57;;;;;;;9.79;52.83;95805.75;5048750;28;20868;-74
2021/05/25 10:14:09;;;;;;;2.07;0.70;;;;;;;9.68;53.55;95814.50;5016379;28;20328;-72
2021/05/25 10:16:38;;;;;;;1.87;0.67;;;;;;;9.57;54.32;95818.03;5073788;28;20205;-73
2021/05/25 10:21:35;;;;;;;3.40;1.10;;;;;;;9.56;56.74;95844.09;5049134;28;20657;-73
2021/05/25 10:24:01;;;;;;;1.43;0.50;;;;;;;9.76;57.47;95834.56;5044021;28;20252;-73
2021/05/25 10:26:27;;;;;;;3.27;0.70;;;;;;;9.52;56.86;95837.53;5038090;28;20273;-74
2021/05/25 10:28:53;;;;;;;3.10;0.90;;;;;;;9.80;57.59;95813.41;5038256;28;20343;-75
2021/05/25 10:31:32;;;;;;;2.30;0.97;;;;;;;9.68;58.71;95844.81;5042775;28;20182;-73
2021/05/25 10:34:17;;;;;;;3.27;0.90;;;;;;;9.84;57.61;95827.75;5048935;28;20202;-72
2021/05/25 10:36:48;;;;;;;5.10;1.13;;;;;;;10.31;57.09;95833.06;5042588;28;20231;-74
2021/05/25 10:39:40;;;;;;;3.23;1.10;;;;;;;10.17;56.75;95838.69;5041049;28;20174;-74
2021/05/25 10:42:17;;;;;;;2.17;0.90;;;;;;;10.24;55.67;95841.56;5044535;28;20202;-73
2021/05/25 10:45:11;;;;;;;3.97;0.80;;;;;;;10.06;56.27;95844.81;5044231;28;20181;-74
2021/05/25 10:47:50;;;;;;;4.27;0.80;;;;;;;10.08;56.45;95862.84;5045396;28;20197;-75
2021/05/25 10:52:55;;;;;;;2.70;0.80;;;;;;;9.61;60.14;95867.84;5079520;28;20222;-74
2021/05/25 10:55:32;;;;;;;2.77;0.77;;;;;;;9.75;59.78;95874.44;5050223;28;20205;-74
2021/05/25 10:57:59;;;;;;;1.57;0.80;;;;;;;9.93;58.73;95862.44;5047524;28;20186;-74
2021/05/25 11:00:34;;;;;;;2.80;0.80;;;;;;;9.61;59.36;95858.28;5042620;28;20174;-74
2021/05/25 11:03:01;;;;;;;1.77;0.57;;;;;;;10.39;58.94;95856.56;5048726;28;20267;-73
2021/05/25 11:05:26;;;;;;;2.77;0.70;;;;;;;10.21;57.17;95832.25;5048486;28;20221;-74
2021/05/25 11:07:52;;;;;;;2.90;0.73;;;;;;;10.25;56.15;95849.22;5041048;28;20213;-73
2021/05/25 11:10:26;;;;;;;0.63;0.57;;;;;;;10.21;55.26;95840.84;5036788;28;20189;-73
2021/05/25 11:13:22;;;;;;;2.73;0.70;;;;;;;10.69;56.47;95847.78;5048141;28;20736;-74
2021/05/25 11:16:07;;;;;;;1.50;0.70;;;;;;;11.25;53.26;95852.06;5045350;28;20182;-74
2021/05/25 11:23:41;;;;;;;2.37;0.70;;;;;;;11.50;51.98;95832.38;5039632;28;20213;-74
2021/05/25 11:26:07;;;;;;;2.03;0.63;;;;;;;11.95;50.30;95839.34;5043244;28;20186;-74
2021/05/25 11:29:10;;;;;;;2.13;0.80;;;;;;;11.92;46.36;95844.84;5045779;28;20239;-74
2021/05/25 11:31:36;;;;;;;1.63;0.90;;;;;;;11.40;46.46;95841.22;5034020;28;20678;-74
2021/05/25 11:34:03;;;;;;;2.70;0.90;;;;;;;11.11;46.94;95833.53;5035224;28;20210;-74
2021/05/25 11:36:29;;;;;;;3.17;0.90;;;;;;;11.08;46.78;95842.44;5049048;28;20235;-74
2021/05/25 11:38:54;;;;;;;2.10;0.67;;;;;;;11.46;45.63;95845.81;5038611;28;20243;-75
2021/05/25 11:41:20;;;;;;;2.67;0.80;;;;;;;10.96;46.29;95843.59;5045411;28;20215;-74
2021/05/25 11:43:45;;;;;;;5.23;1.00;;;;;;;11.71;45.53;95823.47;5046505;28;20229;-74
2021/05/25 11:46:10;;;;;;;2.50;0.80;;;;;;;11.99;44.66;95838.06;5043148;28;20186;-74
2021/05/25 11:48:36;;;;;;;4.47;0.67;;;;;;;12.25;42.85;95832.94;5049661;28;20201;-75
2021/05/25 11:51:09;;;;;;;2.00;0.67;;;;;;;12.47;43.65;95844.66;5038616;28;20202;-74
2021/05/25 11:53:34;;;;;;;2.33;0.90;;;;;;;12.53;42.92;95841.44;5015073;28;20202;-74